createdAt,value
2019-06-08T00:01:27.771Z,17.20
2019-06-08T00:04:00.280Z,17.10
2019-06-08T00:06:32.339Z,17.20
2019-06-08T00:09:05.102Z,17.10
2019-06-08T00:11:38.995Z,17.10
2019-06-08T00:14:11.070Z,17.00
2019-06-08T00:16:43.139Z,17.00
2019-06-08T00:19:15.331Z,16.90
2019-06-08T00:21:49.307Z,16.90
2019-06-08T00:24:21.926Z,16.80
2019-06-08T00:26:54.000Z,16.80
2019-06-08T00:29:26.068Z,16.80
2019-06-08T00:31:58.207Z,16.90
2019-06-08T00:34:32.004Z,16.90
2019-06-08T00:37:03.927Z,17.00
2019-06-08T00:39:36.095Z,17.10
2019-06-08T00:42:08.614Z,17.10
2019-06-08T00:44:41.730Z,17.10
2019-06-08T00:47:13.851Z,17.10
2019-06-08T00:49:47.542Z,17.00
2019-06-08T00:52:19.513Z,17.10
2019-06-08T00:54:51.582Z,17.10
2019-06-08T00:57:23.858Z,17.10
2019-06-08T01:00:48.950Z,17.10
2019-06-08T01:04:02.189Z,17.10
2019-06-08T01:06:54.694Z,17.00
2019-06-08T01:09:45.678Z,16.90
2019-06-08T01:12:39.414Z,16.90
2019-06-08T01:15:26.863Z,16.90
2019-06-08T01:18:04.380Z,16.90
2019-06-08T01:20:56.634Z,16.80
2019-06-08T01:23:32.136Z,16.90
2019-06-08T01:26:14.183Z,17.00
2019-06-08T01:28:57.103Z,17.00
2019-06-08T01:31:32.985Z,17.00
2019-06-08T01:34:08.914Z,17.00
2019-06-08T01:36:49.717Z,16.90
2019-06-08T01:39:37.592Z,16.90
2019-06-08T01:42:25.665Z,16.80
2019-06-08T01:45:03.942Z,16.90
2019-06-08T01:47:57.335Z,16.90
2019-06-08T01:50:51.161Z,16.80
2019-06-08T01:53:48.868Z,16.80
2019-06-08T01:56:33.412Z,16.80
2019-06-08T01:59:25.318Z,16.70
2019-06-08T02:02:02.455Z,16.70
2019-06-08T02:04:55.446Z,16.60
2019-06-08T02:07:49.180Z,16.60
2019-06-08T02:10:36.943Z,16.60
2019-06-08T02:13:35.251Z,16.50
2019-06-08T02:16:19.614Z,16.50
2019-06-08T02:19:28.462Z,16.50
2019-06-08T02:22:33.185Z,16.50
2019-06-08T02:25:27.605Z,16.50
2019-06-08T02:28:03.506Z,16.50
2019-06-08T02:33:52.464Z,16.50
2019-06-08T02:36:28.831Z,16.50
2019-06-08T02:39:06.068Z,16.50
2019-06-08T02:41:42.914Z,16.40
2019-06-08T02:44:24.735Z,16.40
2019-06-08T02:47:16.181Z,16.40
2019-06-08T02:50:01.482Z,16.40
2019-06-08T02:52:40.863Z,16.40
2019-06-08T02:55:18.803Z,16.40
2019-06-08T02:57:56.178Z,16.20
2019-06-08T03:00:43.803Z,16.20
2019-06-08T03:03:22.585Z,16.20
2019-06-08T03:06:08.383Z,16.30
2019-06-08T03:08:51.923Z,16.30
2019-06-08T03:11:26.949Z,16.30
2019-06-08T03:14:06.209Z,16.20
2019-06-08T03:16:43.988Z,16.30
2019-06-08T03:19:29.238Z,16.40
2019-06-08T03:22:11.284Z,16.30
2019-06-08T03:24:50.034Z,16.30
2019-06-08T03:27:27.456Z,16.30
2019-06-08T03:30:15.262Z,16.30
2019-06-08T03:32:50.668Z,16.40
2019-06-08T03:35:19.801Z,16.40
2019-06-08T03:37:56.013Z,16.40
2019-06-08T03:40:35.895Z,16.30
2019-06-08T03:43:18.071Z,16.30
2019-06-08T03:45:57.110Z,16.30
2019-06-08T03:48:51.790Z,16.30
2019-06-08T03:51:43.570Z,16.30
2019-06-08T03:54:18.485Z,16.30
2019-06-08T03:57:02.367Z,16.30
2019-06-08T03:59:43.776Z,16.50
2019-06-08T04:02:25.895Z,16.40
2019-06-08T04:05:01.381Z,16.40
2019-06-08T04:07:39.622Z,16.40
2019-06-08T04:10:17.242Z,16.40
2019-06-08T04:12:54.269Z,16.40
2019-06-08T04:15:38.491Z,16.40
2019-06-08T04:18:19.443Z,16.50
2019-06-08T04:21:07.922Z,16.40
2019-06-08T04:23:47.067Z,16.20
2019-06-08T04:26:30.126Z,16.30
2019-06-08T04:29:22.192Z,16.30
2019-06-08T04:32:00.163Z,16.30
2019-06-08T04:34:41.019Z,16.40
2019-06-08T04:37:15.927Z,16.40
2019-06-08T04:40:03.712Z,16.30
2019-06-08T04:42:41.718Z,16.40
2019-06-08T04:45:28.165Z,16.50
2019-06-08T04:48:09.795Z,16.60
2019-06-08T04:50:49.841Z,16.50
2019-06-08T04:53:28.389Z,16.50
2019-06-08T04:56:29.415Z,16.60
2019-06-08T04:59:07.635Z,16.60
2019-06-08T05:02:44.017Z,16.60
2019-06-08T05:05:27.377Z,16.60
2019-06-08T05:08:04.307Z,16.60
2019-06-08T05:10:39.233Z,16.60
2019-06-08T05:13:43.183Z,16.60
2019-06-08T05:16:23.772Z,16.60
2019-06-08T05:19:07.125Z,16.60
2019-06-08T05:21:41.587Z,16.60
2019-06-08T05:24:13.742Z,16.60
2019-06-08T05:26:47.162Z,16.60
2019-06-08T05:29:19.393Z,16.70
2019-06-08T05:31:51.542Z,16.70
2019-06-08T05:34:23.684Z,16.70
2019-06-08T05:36:55.790Z,16.70
2019-06-08T05:39:27.829Z,16.80
2019-06-08T05:41:59.948Z,16.90
2019-06-08T05:44:32.037Z,16.90
2019-06-08T05:47:05.656Z,16.90
2019-06-08T05:49:37.727Z,16.90
2019-06-08T05:52:09.897Z,17.00
2019-06-08T05:54:41.882Z,17.10
2019-06-08T05:57:14.918Z,17.10
2019-06-08T05:59:48.114Z,17.10
2019-06-08T06:02:22.616Z,17.10
2019-06-08T06:04:54.771Z,17.10
2019-06-08T06:07:26.916Z,17.10
2019-06-08T06:09:59.060Z,17.20
2019-06-08T06:12:31.301Z,17.30
2019-06-08T06:15:06.538Z,17.40
2019-06-08T06:17:39.002Z,17.60
2019-06-08T06:20:11.250Z,17.80
2019-06-08T06:22:43.988Z,18.10
2019-06-08T06:25:16.978Z,18.40
2019-06-08T06:27:49.645Z,18.60
2019-06-08T06:30:21.818Z,18.70
2019-06-08T06:32:53.974Z,18.70
2019-06-08T06:35:26.167Z,18.50
2019-06-08T06:37:58.335Z,18.80
2019-06-08T06:40:30.393Z,19.20
2019-06-08T06:43:02.427Z,19.50
2019-06-08T06:45:34.467Z,19.80
2019-06-08T06:48:06.634Z,20.00
2019-06-08T06:50:38.766Z,20.20
2019-06-08T06:53:10.675Z,20.60
2019-06-08T06:55:42.899Z,20.90
2019-06-08T06:58:14.880Z,20.90
2019-06-08T07:00:47.518Z,20.90
2019-06-08T07:03:19.782Z,20.80
2019-06-08T07:05:52.034Z,21.00
2019-06-08T07:08:25.280Z,21.30
2019-06-08T07:10:57.404Z,21.40
2019-06-08T07:13:30.053Z,21.40
2019-06-08T07:16:17.283Z,21.40
2019-06-08T07:18:36.007Z,21.30
2019-06-08T07:21:09.277Z,21.30
2019-06-08T07:23:41.404Z,21.50
2019-06-08T07:26:13.543Z,21.50
2019-06-08T07:28:46.246Z,21.70
2019-06-08T07:31:19.701Z,21.70
2019-06-08T07:33:52.282Z,21.70
2019-06-08T07:36:25.661Z,21.90
2019-06-08T07:38:57.989Z,21.90
2019-06-08T07:41:30.152Z,21.80
2019-06-08T07:44:02.191Z,21.70
2019-06-08T07:46:34.271Z,21.60
2019-06-08T07:49:08.431Z,21.60
2019-06-08T07:51:40.557Z,21.70
2019-06-08T07:54:12.614Z,21.80
2019-06-08T07:56:44.629Z,21.90
2019-06-08T07:59:16.733Z,21.90
2019-06-08T08:01:49.864Z,22.00
2019-06-08T08:04:22.011Z,22.00
2019-06-08T08:06:54.550Z,22.10
2019-06-08T08:09:27.356Z,22.10
2019-06-08T08:11:59.763Z,22.10
2019-06-08T08:14:31.897Z,22.20
2019-06-08T08:17:06.963Z,22.10
2019-06-08T08:19:39.068Z,22.10
2019-06-08T08:22:23.009Z,22.10
2019-06-08T08:24:50.537Z,22.30
2019-06-08T08:27:21.111Z,22.50
2019-06-08T08:30:02.331Z,22.50
2019-06-08T08:32:34.569Z,22.50
2019-06-08T08:35:08.785Z,22.60
2019-06-08T08:37:40.705Z,22.60
2019-06-08T08:40:14.827Z,22.50
2019-06-08T08:42:49.415Z,22.30
2019-06-08T08:45:21.776Z,22.10
2019-06-08T08:48:12.032Z,22.30
2019-06-08T08:50:28.362Z,22.30
2019-06-08T08:53:28.971Z,22.40
2019-06-08T08:56:27.937Z,22.50
2019-06-08T08:58:55.051Z,22.50
2019-06-08T09:01:33.230Z,22.50
2019-06-08T09:04:10.606Z,22.60
2019-06-08T09:06:44.125Z,22.60
2019-06-08T09:36:10.247Z,22.40
2019-06-08T09:38:42.356Z,22.30
2019-06-08T09:41:14.553Z,22.30
2019-06-08T09:43:48.665Z,22.40
2019-06-08T09:46:20.431Z,22.20
2019-06-08T09:48:54.026Z,22.30
2019-06-08T09:57:48.531Z,22.50
2019-06-08T10:00:25.638Z,22.50
2019-06-08T10:02:59.353Z,22.30
2019-06-08T10:05:29.667Z,22.40
2019-06-08T10:08:02.886Z,22.40
2019-06-08T10:10:36.699Z,22.60
2019-06-08T10:13:09.628Z,22.70
2019-06-08T10:15:42.120Z,22.90
2019-06-08T10:18:17.585Z,23.00
2019-06-08T10:20:49.012Z,23.20
2019-06-08T10:23:30.750Z,23.30
2019-06-08T10:25:54.981Z,23.40
2019-06-08T10:28:28.917Z,23.50
2019-06-08T10:31:03.296Z,23.60
2019-06-08T10:33:40.671Z,23.60
2019-06-08T10:36:14.517Z,23.60
2019-06-08T10:38:48.015Z,23.70
2019-06-08T10:41:21.861Z,23.80
2019-06-08T10:43:53.993Z,23.90
2019-06-08T10:46:26.387Z,23.80
2019-06-08T10:48:59.614Z,23.80
2019-06-08T10:51:31.878Z,23.90
2019-06-08T10:54:04.386Z,24.00
2019-06-08T10:56:38.558Z,24.10
2019-06-08T10:59:12.257Z,24.00
2019-06-08T11:01:44.044Z,24.00
2019-06-08T11:04:18.480Z,24.00
2019-06-08T11:06:49.411Z,23.80
2019-06-08T11:09:21.550Z,23.90
2019-06-08T11:11:52.729Z,23.90
2019-06-08T11:14:23.700Z,23.70
2019-06-08T11:16:54.714Z,23.80
2019-06-08T11:19:26.532Z,24.00
2019-06-08T11:22:02.684Z,24.10
2019-06-08T11:24:32.438Z,24.10
2019-06-08T11:27:05.699Z,23.70
2019-06-08T11:29:38.402Z,23.70
2019-06-08T11:32:12.427Z,23.80
2019-06-08T11:34:44.936Z,23.70
2019-06-08T11:37:20.813Z,23.70
2019-06-08T11:39:51.275Z,23.70
2019-06-08T11:42:25.532Z,23.90
2019-06-08T11:44:58.650Z,24.00
2019-06-08T11:47:31.362Z,24.00
2019-06-08T11:50:04.589Z,23.90
2019-06-08T11:52:38.231Z,24.00
2019-06-08T11:55:12.919Z,24.10
2019-06-08T11:57:45.662Z,24.10
2019-06-08T12:00:51.975Z,24.20
2019-06-08T12:03:25.011Z,24.30
2019-06-08T12:06:00.054Z,24.30
2019-06-08T12:08:32.230Z,24.30
2019-06-08T12:11:06.155Z,24.30
2019-06-08T12:13:38.219Z,24.30
2019-06-08T12:16:15.790Z,24.30
2019-06-08T12:18:49.178Z,24.30
2019-06-08T12:21:20.178Z,24.40
2019-06-08T12:23:52.168Z,24.50
2019-06-08T12:26:24.174Z,24.30
2019-06-08T12:28:58.055Z,24.30
2019-06-08T12:31:30.503Z,24.30
2019-06-08T12:34:02.867Z,24.30
2019-06-08T12:36:37.431Z,24.20
2019-06-08T12:39:10.114Z,24.20
2019-06-08T12:41:42.267Z,24.10
2019-06-08T12:44:16.403Z,24.20
2019-06-08T12:46:48.608Z,24.30
2019-06-08T12:49:20.816Z,24.40
2019-06-08T12:51:52.958Z,24.40
2019-06-08T12:54:25.343Z,24.40
2019-06-08T12:56:57.968Z,24.30
2019-06-08T12:59:31.860Z,24.40
2019-06-08T13:02:08.917Z,24.30
2019-06-08T13:04:40.131Z,24.10
2019-06-08T13:07:13.167Z,24.10
2019-06-08T13:09:48.186Z,24.00
2019-06-08T13:12:21.949Z,24.00
2019-06-08T13:14:54.579Z,24.00
2019-06-08T13:17:27.993Z,23.70
2019-06-08T13:20:00.176Z,23.60
2019-06-08T13:22:32.312Z,23.50
2019-06-08T13:25:21.129Z,23.60
2019-06-08T13:27:38.457Z,23.60
2019-06-08T13:30:11.626Z,23.60
2019-06-08T13:32:48.298Z,23.30
2019-06-08T13:35:22.406Z,23.10
2019-06-08T13:37:54.712Z,23.10
2019-06-08T13:40:26.831Z,22.90
2019-06-08T13:42:58.843Z,22.70
2019-06-08T13:45:30.879Z,22.60
2019-06-08T13:48:03.365Z,22.70
2019-06-08T13:50:36.055Z,22.80
2019-06-08T13:53:10.616Z,22.80
2019-06-08T13:55:53.239Z,22.70
2019-06-08T13:58:19.302Z,22.70
2019-06-08T14:00:50.500Z,22.60
2019-06-08T14:03:23.327Z,22.60
2019-06-08T14:05:56.504Z,22.60
2019-06-08T14:08:32.882Z,22.60
2019-06-08T14:11:02.634Z,22.70
2019-06-08T14:13:34.808Z,22.80
2019-06-08T14:16:08.611Z,22.80
2019-06-08T14:18:40.867Z,22.80
2019-06-08T14:21:12.927Z,22.80
2019-06-08T14:23:44.010Z,23.00
2019-06-08T14:26:17.602Z,22.90
2019-06-08T14:28:50.434Z,22.70
2019-06-08T14:31:23.999Z,22.70
2019-06-08T14:33:56.460Z,22.80
2019-06-08T14:36:29.162Z,22.70
2019-06-08T14:39:02.764Z,22.60
2019-06-08T14:41:36.433Z,22.60
2019-06-08T14:44:08.565Z,22.60
2019-06-08T14:46:41.470Z,22.50
2019-06-08T14:49:13.701Z,22.60
2019-06-08T14:51:51.995Z,22.50
2019-06-08T14:54:27.144Z,22.50
2019-06-08T14:56:57.992Z,22.40
2019-06-08T14:59:31.748Z,22.40
2019-06-08T15:02:03.989Z,22.40
2019-06-08T15:04:36.895Z,22.50
2019-06-08T15:07:10.349Z,22.50
2019-06-08T15:09:42.746Z,22.40
2019-06-08T15:12:14.771Z,22.50
2019-06-08T15:14:48.363Z,22.50
2019-06-08T15:17:21.869Z,22.40
2019-06-08T15:19:54.293Z,22.50
2019-06-08T15:22:28.706Z,22.50
2019-06-08T15:25:00.205Z,22.60
2019-06-08T15:27:33.458Z,22.60
2019-06-08T15:30:07.347Z,22.60
2019-06-08T15:32:39.473Z,22.60
2019-06-08T15:35:11.559Z,22.50
2019-06-08T15:37:43.689Z,22.40
2019-06-08T15:40:17.683Z,22.40
2019-06-08T15:42:50.300Z,22.50
2019-06-08T15:45:22.455Z,22.60
2019-06-08T15:47:54.610Z,22.50
2019-06-08T15:50:26.720Z,22.60
2019-06-08T15:53:00.130Z,22.60
2019-06-08T15:55:34.520Z,22.60
2019-06-08T15:58:08.949Z,22.60
2019-06-08T16:00:40.536Z,22.50
2019-06-08T16:03:12.567Z,22.60
2019-06-08T16:05:44.593Z,22.60
2019-06-08T16:08:16.687Z,22.60
2019-06-08T16:10:48.755Z,22.50
2019-06-08T16:13:20.790Z,22.50
2019-06-08T16:15:52.984Z,22.50
2019-06-08T16:18:25.511Z,22.50
2019-06-08T16:20:57.561Z,22.30
2019-06-08T16:23:29.998Z,22.40
2019-06-08T16:26:02.186Z,22.40
2019-06-08T16:28:34.233Z,22.40
2019-06-08T16:31:06.327Z,22.40
2019-06-08T16:33:39.660Z,22.30
2019-06-08T16:36:11.742Z,22.30
2019-06-08T16:38:43.840Z,22.20
2019-06-08T16:41:16.070Z,22.20
2019-06-08T16:43:48.066Z,22.20
2019-06-08T16:46:20.115Z,22.20
2019-06-08T16:48:52.192Z,22.20
2019-06-08T16:51:24.304Z,22.20
2019-06-08T16:53:56.378Z,22.20
2019-06-08T16:56:29.861Z,22.20
2019-06-08T16:59:02.266Z,22.20
2019-06-08T17:01:34.731Z,22.30
2019-06-08T17:04:07.197Z,22.30
2019-06-08T17:06:39.502Z,22.20
2019-06-08T17:09:11.641Z,22.20
2019-06-08T17:11:43.751Z,22.10
2019-06-08T17:14:15.753Z,22.10
2019-06-08T17:16:47.790Z,22.20
2019-06-08T17:19:19.891Z,22.20
2019-06-08T17:21:52.016Z,22.20
2019-06-08T17:24:24.875Z,22.30
2019-06-08T17:26:56.840Z,22.30
2019-06-08T17:29:28.877Z,22.30
2019-06-08T17:32:00.968Z,22.30
2019-06-08T17:34:34.949Z,22.40
2019-06-08T17:37:06.917Z,22.40
2019-06-08T17:39:40.135Z,22.40
2019-06-08T17:42:12.375Z,22.40
2019-06-08T17:44:44.412Z,22.40
2019-06-08T17:47:16.553Z,22.30
2019-06-08T17:49:49.070Z,22.20
2019-06-08T17:52:21.130Z,22.20
2019-06-08T17:54:53.299Z,22.10
2019-06-08T17:57:41.506Z,22.10
2019-06-08T18:00:03.691Z,22.10
2019-06-08T18:02:42.013Z,21.90
2019-06-08T18:05:17.943Z,21.90
2019-06-08T18:07:51.607Z,21.90
2019-06-08T18:10:33.747Z,21.90
2019-06-08T18:13:08.100Z,21.80
2019-06-08T18:15:42.120Z,21.70
2019-06-08T18:18:19.529Z,21.70
2019-06-08T18:20:52.337Z,21.70
2019-06-08T18:23:24.728Z,21.60
2019-06-08T18:25:58.156Z,21.60
2019-06-08T18:28:32.609Z,21.60
2019-06-08T18:31:07.366Z,21.60
2019-06-08T18:33:41.270Z,21.40
2019-06-08T18:36:13.135Z,21.40
2019-06-08T18:38:46.216Z,21.30
2019-06-08T18:41:22.317Z,21.20
2019-06-08T18:44:10.546Z,21.10
2019-06-08T18:46:50.953Z,21.10
2019-06-08T18:50:08.823Z,21.00
2019-06-08T18:52:43.407Z,21.00
2019-06-08T18:55:21.974Z,20.90
2019-06-08T18:58:16.439Z,20.90
2019-06-08T19:00:42.021Z,20.80
2019-06-08T19:03:12.956Z,20.80
2019-06-08T19:05:50.488Z,20.70
2019-06-08T19:08:24.704Z,20.70
2019-06-08T19:10:57.942Z,20.70
2019-06-08T19:13:30.623Z,20.60
2019-06-08T19:16:09.646Z,20.60
2019-06-08T19:19:04.468Z,20.60
2019-06-08T19:21:47.718Z,20.50
2019-06-08T19:24:22.154Z,20.40
2019-06-08T19:27:07.685Z,20.40
2019-06-08T19:29:53.337Z,20.30
2019-06-08T19:32:40.397Z,20.30
2019-06-08T19:35:37.703Z,20.30
2019-06-08T19:38:27.702Z,20.30
2019-06-08T19:41:07.769Z,20.30
2019-06-08T19:43:50.589Z,20.20
2019-06-08T19:46:38.215Z,20.20
2019-06-08T19:49:24.270Z,20.10
2019-06-08T19:52:19.556Z,20.00
2019-06-08T19:54:53.743Z,20.00
2019-06-08T19:57:39.216Z,20.00
2019-06-08T20:00:21.550Z,19.90
2019-06-08T20:03:14.710Z,19.70
2019-06-08T20:06:04.592Z,19.50
2019-06-08T20:08:37.499Z,19.40
2019-06-08T20:11:21.466Z,19.40
2019-06-08T20:13:58.727Z,19.30
2019-06-08T20:16:38.324Z,19.30
2019-06-08T20:19:32.144Z,19.30
2019-06-08T20:27:41.355Z,19.30
2019-06-08T20:32:35.641Z,19.20
2019-06-08T20:35:09.371Z,19.00
2019-06-08T20:37:43.556Z,18.90
2019-06-08T20:40:17.858Z,19.00
2019-06-08T20:42:53.305Z,18.90
2019-06-08T20:45:24.823Z,18.90
2019-06-08T20:48:11.838Z,18.90
2019-06-08T20:51:28.448Z,18.80
2019-06-08T20:54:14.060Z,18.70
2019-06-08T20:56:58.015Z,18.70
2019-06-08T21:00:11.470Z,18.70
2019-06-08T21:03:02.683Z,18.50
2019-06-08T21:09:07.661Z,18.40
2019-06-08T21:11:52.544Z,18.30
2019-06-08T21:14:52.690Z,18.30
2019-06-08T21:17:50.671Z,18.30
2019-06-08T21:20:49.218Z,18.10
2019-06-08T21:23:38.788Z,18.00
2019-06-08T21:29:49.088Z,17.90
2019-06-08T21:32:21.762Z,17.80
2019-06-08T21:35:00.461Z,17.70
2019-06-08T21:41:03.544Z,17.50
2019-06-08T21:46:42.351Z,17.30
2019-06-08T21:49:27.734Z,17.20
2019-06-08T21:52:08.400Z,17.10
2019-06-08T22:01:33.038Z,16.80
2019-06-08T22:05:09.607Z,16.80
2019-06-08T22:08:32.715Z,16.70
2019-06-08T22:11:17.591Z,16.70
2019-06-08T22:14:01.311Z,16.70
2019-06-08T22:16:42.269Z,16.60
2019-06-08T22:19:22.308Z,16.50
2019-06-08T22:22:09.894Z,16.40
2019-06-08T22:25:01.103Z,16.30
2019-06-08T22:27:38.157Z,16.30
2019-06-08T22:30:39.336Z,16.30
2019-06-08T22:33:09.839Z,16.30
2019-06-08T22:35:47.623Z,16.30
2019-06-08T22:39:03.817Z,16.30
2019-06-08T22:41:47.789Z,16.30
2019-06-08T22:45:03.918Z,16.20
2019-06-08T22:47:47.898Z,16.20
2019-06-08T22:50:32.903Z,16.20
2019-06-08T22:53:16.460Z,16.10
2019-06-08T22:55:50.618Z,16.10
2019-06-08T22:58:32.206Z,16.00
2019-06-08T23:01:27.710Z,16.00
2019-06-08T23:04:18.369Z,16.00
2019-06-08T23:07:29.815Z,15.90
2019-06-08T23:10:11.054Z,15.90
2019-06-08T23:12:51.948Z,15.70
2019-06-08T23:15:32.571Z,15.60
2019-06-08T23:18:20.293Z,15.60
2019-06-08T23:20:52.519Z,15.50
2019-06-08T23:23:32.040Z,15.50
2019-06-08T23:26:10.601Z,15.40
2019-06-08T23:28:50.257Z,15.40
2019-06-08T23:31:30.458Z,15.40
2019-06-08T23:34:11.326Z,15.30
2019-06-08T23:36:58.666Z,15.20
2019-06-08T23:39:28.451Z,15.20
2019-06-08T23:42:06.231Z,15.10
2019-06-08T23:44:37.771Z,15.10
2019-06-08T23:47:28.112Z,15.10
2019-06-08T23:50:11.494Z,15.10
2019-06-08T23:53:07.734Z,15.10
2019-06-08T23:55:49.017Z,15.00
2019-06-08T23:58:41.638Z,15.10
